createdAt,value
2019-05-26T00:02:08.934Z,78.80
2019-05-26T00:04:37.019Z,80.30
2019-05-26T00:07:04.477Z,79.60
2019-05-26T00:09:33.338Z,77.90
2019-05-26T00:12:01.637Z,77.80
2019-05-26T00:14:29.713Z,79.80
2019-05-26T00:16:57.682Z,79.20
2019-05-26T00:19:36.242Z,79.00
2019-05-26T00:22:07.643Z,77.70
2019-05-26T00:24:35.261Z,77.50
2019-05-26T00:27:03.077Z,77.70
2019-05-26T00:29:31.376Z,80.90
2019-05-26T00:31:58.911Z,76.80
2019-05-26T00:34:26.540Z,80.10
2019-05-26T00:36:54.472Z,80.30
2019-05-26T00:39:23.816Z,77.90
2019-05-26T00:41:51.824Z,77.70
2019-05-26T00:44:19.766Z,80.80
2019-05-26T00:46:53.111Z,81.80
2019-05-26T00:49:20.739Z,76.30
2019-05-26T00:51:49.029Z,80.70
2019-05-26T00:54:16.555Z,80.50
2019-05-26T00:56:54.330Z,79.50
2019-05-26T00:59:28.770Z,79.70
2019-05-26T01:01:56.268Z,81.30
2019-05-26T01:04:24.177Z,80.90
2019-05-26T01:06:53.550Z,81.80
2019-05-26T01:09:21.359Z,82.30
2019-05-26T01:11:52.101Z,83.50
2019-05-26T01:14:21.184Z,84.80
2019-05-26T01:16:51.286Z,84.90
2019-05-26T01:19:21.972Z,83.90
2019-05-26T01:21:49.367Z,83.40
2019-05-26T01:24:16.833Z,85.00
2019-05-26T01:26:44.805Z,84.40
2019-05-26T01:29:13.293Z,84.50
2019-05-26T01:31:41.861Z,85.90
2019-05-26T01:34:09.261Z,86.30
2019-05-26T01:36:38.085Z,86.40
2019-05-26T01:39:07.561Z,85.70
2019-05-26T01:41:35.086Z,86.60
2019-05-26T01:44:02.760Z,84.70
2019-05-26T01:46:31.222Z,86.00
2019-05-26T01:48:59.936Z,86.60
2019-05-26T01:51:28.744Z,87.20
2019-05-26T01:53:56.220Z,87.10
2019-05-26T01:56:27.418Z,87.50
2019-05-26T01:58:56.853Z,88.40
2019-05-26T02:01:26.369Z,87.20
2019-05-26T02:03:54.054Z,89.60
2019-05-26T02:06:22.714Z,89.40
2019-05-26T02:08:52.086Z,88.80
2019-05-26T02:11:21.728Z,90.10
2019-05-26T02:13:54.240Z,90.00
2019-05-26T02:16:25.109Z,90.30
2019-05-26T02:18:53.554Z,89.50
2019-05-26T02:21:20.755Z,90.20
2019-05-26T02:23:49.019Z,89.60
2019-05-26T02:26:19.359Z,89.70
2019-05-26T02:28:46.963Z,90.40
2019-05-26T02:31:14.575Z,90.00
2019-05-26T02:33:42.500Z,90.30
2019-05-26T02:36:11.907Z,90.60
2019-05-26T02:39:00.311Z,90.70
2019-05-26T02:41:10.788Z,90.50
2019-05-26T02:43:38.343Z,90.50
2019-05-26T02:46:07.402Z,90.50
2019-05-26T02:48:35.060Z,90.90
2019-05-26T02:51:02.430Z,90.90
2019-05-26T02:53:30.088Z,90.70
2019-05-26T02:55:57.657Z,90.60
2019-05-26T02:58:25.036Z,90.70
2019-05-26T03:00:54.601Z,90.90
2019-05-26T03:03:22.268Z,91.00
2019-05-26T03:05:49.660Z,91.20
2019-05-26T03:08:18.024Z,90.90
2019-05-26T03:10:45.428Z,90.90
2019-05-26T03:13:23.180Z,91.10
2019-05-26T03:15:50.823Z,91.00
2019-05-26T03:18:18.086Z,91.00
2019-05-26T03:20:45.615Z,91.30
2019-05-26T03:23:14.518Z,91.10
2019-05-26T03:25:42.098Z,90.80
2019-05-26T03:28:11.083Z,90.80
2019-05-26T03:30:38.747Z,90.60
2019-05-26T03:33:06.762Z,90.90
2019-05-26T03:35:35.195Z,91.30
2019-05-26T03:38:02.879Z,91.00
2019-05-26T03:40:33.393Z,90.90
2019-05-26T03:43:10.267Z,91.00
2019-05-26T03:46:07.969Z,91.00
2019-05-26T03:48:36.414Z,91.00
2019-05-26T03:51:04.149Z,90.90
2019-05-26T03:53:31.537Z,91.00
2019-05-26T03:55:59.266Z,91.10
2019-05-26T03:58:29.524Z,91.30
2019-05-26T04:00:59.573Z,91.20
2019-05-26T04:03:28.155Z,91.30
2019-05-26T04:05:57.332Z,90.90
2019-05-26T04:08:24.878Z,91.30
2019-05-26T04:10:52.401Z,91.20
2019-05-26T04:13:25.837Z,91.40
2019-05-26T04:15:54.499Z,91.20
2019-05-26T04:18:22.182Z,91.10
2019-05-26T04:20:50.214Z,91.10
2019-05-26T04:23:19.134Z,91.20
2019-05-26T04:25:47.754Z,91.20
2019-05-26T04:28:16.571Z,91.30
2019-05-26T04:30:49.322Z,91.10
2019-05-26T04:33:17.661Z,90.90
2019-05-26T04:35:45.928Z,90.90
2019-05-26T04:38:13.285Z,91.00
2019-05-26T04:40:40.969Z,91.10
2019-05-26T04:43:13.666Z,90.90
2019-05-26T04:45:38.331Z,91.00
2019-05-26T04:48:05.787Z,91.00
2019-05-26T04:50:33.424Z,90.60
2019-05-26T04:53:06.894Z,90.90
2019-05-26T04:55:31.522Z,90.90
2019-05-26T04:57:59.084Z,90.80
2019-05-26T05:00:26.579Z,91.00
2019-05-26T05:02:54.187Z,91.00
2019-05-26T05:05:22.472Z,90.80
2019-05-26T05:07:50.859Z,90.80
2019-05-26T05:10:18.261Z,90.70
2019-05-26T05:12:45.861Z,90.70
2019-05-26T05:15:13.326Z,90.50
2019-05-26T05:17:40.801Z,90.90
2019-05-26T05:20:08.354Z,90.60
2019-05-26T05:22:35.891Z,90.50
2019-05-26T05:25:13.209Z,90.60
2019-05-26T05:27:35.211Z,90.40
2019-05-26T05:30:10.683Z,90.50
2019-05-26T05:32:37.929Z,90.40
2019-05-26T05:35:15.098Z,90.30
2019-05-26T05:37:49.561Z,90.10
2019-05-26T05:40:24.410Z,90.00
2019-05-26T05:42:52.929Z,89.80
2019-05-26T05:45:21.000Z,89.80
2019-05-26T05:47:56.318Z,89.60
2019-05-26T05:50:26.581Z,89.30
2019-05-26T05:52:54.198Z,89.60
2019-05-26T05:55:22.340Z,89.40
2019-05-26T05:57:52.637Z,89.10
2019-05-26T06:00:20.131Z,88.90
2019-05-26T06:02:48.177Z,88.70
2019-05-26T06:05:16.074Z,88.50
2019-05-26T06:07:43.837Z,88.00
2019-05-26T06:10:11.476Z,87.70
2019-05-26T06:12:39.469Z,87.40
2019-05-26T06:15:10.059Z,87.10
2019-05-26T06:17:45.880Z,86.80
2019-05-26T06:20:14.707Z,86.50
2019-05-26T06:22:46.217Z,86.20
2019-05-26T06:25:17.643Z,85.90
2019-05-26T06:27:54.303Z,84.90
2019-05-26T06:30:26.028Z,84.80
2019-05-26T06:33:03.400Z,84.20
2019-05-26T06:38:12.629Z,84.10
2019-05-26T06:40:43.302Z,83.60
2019-05-26T06:43:14.377Z,84.40
2019-05-26T06:45:52.037Z,83.80
2019-05-26T06:48:26.402Z,83.50
2019-05-26T06:50:52.022Z,83.30
2019-05-26T06:53:19.468Z,83.10
2019-05-26T06:55:48.948Z,83.60
2019-05-26T06:58:16.327Z,81.90
2019-05-26T07:00:45.310Z,82.10
2019-05-26T07:03:14.911Z,82.00
2019-05-26T07:05:42.715Z,81.20
2019-05-26T07:08:20.389Z,81.00
2019-05-26T07:10:51.610Z,81.10
2019-05-26T07:13:25.227Z,80.30
2019-05-26T07:15:56.468Z,79.10
2019-05-26T07:18:27.187Z,79.20
2019-05-26T07:20:59.045Z,78.70
2019-05-26T07:23:27.446Z,78.60
2019-05-26T07:25:55.136Z,79.50
2019-05-26T07:28:22.506Z,77.80
2019-05-26T07:30:54.728Z,74.50
2019-05-26T07:33:22.279Z,74.00
2019-05-26T07:35:53.952Z,72.80
2019-05-26T07:38:21.688Z,72.90
2019-05-26T07:40:50.959Z,70.70
2019-05-26T07:43:20.419Z,71.90
2019-05-26T07:45:54.306Z,70.80
2019-05-26T07:48:22.069Z,70.40
2019-05-26T07:50:54.226Z,69.60
2019-05-26T07:53:24.670Z,71.00
2019-05-26T07:55:52.337Z,69.10
2019-05-26T07:58:21.191Z,67.30
2019-05-26T08:00:50.272Z,68.10
2019-05-26T08:03:24.744Z,67.50
2019-05-26T08:05:52.227Z,68.90
2019-05-26T08:08:20.000Z,67.30
2019-05-26T08:11:00.798Z,68.20
2019-05-26T08:13:29.056Z,68.60
2019-05-26T08:15:56.531Z,68.50
2019-05-26T08:18:24.446Z,67.00
2019-05-26T08:20:58.704Z,64.50
2019-05-26T08:23:27.900Z,65.10
2019-05-26T08:25:58.426Z,66.00
2019-05-26T08:28:26.636Z,65.20
2019-05-26T08:30:54.850Z,65.90
2019-05-26T08:33:22.832Z,65.40
2019-05-26T08:35:52.498Z,65.10
2019-05-26T08:38:20.255Z,65.70
2019-05-26T08:40:52.343Z,66.00
2019-05-26T08:43:22.700Z,64.00
2019-05-26T08:45:50.183Z,64.40
2019-05-26T08:48:17.891Z,63.40
2019-05-26T08:50:45.370Z,64.80
2019-05-26T08:53:12.907Z,64.50
2019-05-26T08:55:49.667Z,63.00
2019-05-26T08:58:17.316Z,64.10
2019-05-26T09:00:44.813Z,64.40
2019-05-26T09:03:14.053Z,61.60
2019-05-26T09:05:47.817Z,63.70
2019-05-26T09:08:15.726Z,63.00
2019-05-26T09:10:43.781Z,61.00
2019-05-26T09:13:11.686Z,61.10
2019-05-26T09:15:42.186Z,60.60
2019-05-26T09:18:11.678Z,60.70
2019-05-26T09:20:43.197Z,60.20
2019-05-26T09:23:10.914Z,60.40
2019-05-26T09:25:40.517Z,58.40
2019-05-26T09:28:09.093Z,58.50
2019-05-26T09:30:39.874Z,58.60
2019-05-26T09:33:10.320Z,58.20
2019-05-26T09:35:38.511Z,58.20
2019-05-26T09:38:06.389Z,57.40
2019-05-26T09:40:34.019Z,58.40
2019-05-26T09:43:15.614Z,57.30
2019-05-26T09:45:43.904Z,57.10
2019-05-26T09:48:12.823Z,57.00
2019-05-26T09:50:40.558Z,56.00
2019-05-26T09:53:09.755Z,56.20
2019-05-26T09:55:37.555Z,56.00
2019-05-26T09:58:05.083Z,55.00
2019-05-26T10:00:35.815Z,55.10
2019-05-26T10:03:03.736Z,55.90
2019-05-26T10:05:31.554Z,55.90
2019-05-26T10:08:05.387Z,56.00
2019-05-26T10:10:33.955Z,56.00
2019-05-26T10:13:03.747Z,55.90
2019-05-26T10:15:31.644Z,54.90
2019-05-26T10:17:59.298Z,55.20
2019-05-26T10:20:34.093Z,55.60
2019-05-26T10:23:01.707Z,55.80
2019-05-26T10:25:29.971Z,55.50
2019-05-26T10:28:06.917Z,55.40
2019-05-26T10:30:35.018Z,56.00
2019-05-26T10:33:03.342Z,55.90
2019-05-26T10:35:32.963Z,56.20
2019-05-26T10:38:00.375Z,56.00
2019-05-26T10:40:32.701Z,57.20
2019-05-26T10:43:07.293Z,55.90
2019-05-26T10:45:35.839Z,57.10
2019-05-26T10:48:03.613Z,56.10
2019-05-26T10:50:31.644Z,57.10
2019-05-26T10:52:58.931Z,54.80
2019-05-26T10:55:26.508Z,55.50
2019-05-26T10:57:54.781Z,54.70
2019-05-26T11:00:22.636Z,53.50
2019-05-26T11:02:50.718Z,53.80
2019-05-26T11:05:21.623Z,53.50
2019-05-26T11:07:49.280Z,53.00
2019-05-26T11:10:17.157Z,52.30
2019-05-26T11:12:48.007Z,53.10
2019-05-26T11:15:15.552Z,52.60
2019-05-26T11:17:44.346Z,52.50
2019-05-26T11:20:13.710Z,52.30
2019-05-26T11:22:42.601Z,52.70
2019-05-26T11:25:11.310Z,52.60
2019-05-26T11:27:44.005Z,51.70
2019-05-26T11:30:11.853Z,52.10
2019-05-26T11:32:40.674Z,52.40
2019-05-26T11:35:13.957Z,52.70
2019-05-26T11:37:41.536Z,52.40
2019-05-26T11:40:10.184Z,53.00
2019-05-26T11:42:45.280Z,53.00
2019-05-26T11:45:15.439Z,52.80
2019-05-26T11:47:45.065Z,53.00
2019-05-26T11:50:19.481Z,53.00
2019-05-26T11:52:52.780Z,53.80
2019-05-26T11:55:34.250Z,53.90
2019-05-26T11:58:13.987Z,54.00
2019-05-26T12:00:46.189Z,54.80
2019-05-26T12:03:16.466Z,52.20
2019-05-26T12:05:44.851Z,53.00
2019-05-26T12:08:12.850Z,53.50
2019-05-26T12:10:40.392Z,53.40
2019-05-26T12:13:08.675Z,53.20
2019-05-26T12:15:36.188Z,52.40
2019-05-26T12:18:04.740Z,51.60
2019-05-26T12:20:42.631Z,52.10
2019-05-26T12:23:10.361Z,51.90
2019-05-26T12:25:40.929Z,52.70
2019-05-26T12:28:09.621Z,51.90
2019-05-26T12:30:38.246Z,51.80
2019-05-26T12:33:08.907Z,51.40
2019-05-26T12:35:44.766Z,50.70
2019-05-26T12:38:12.447Z,50.20
2019-05-26T12:40:40.128Z,50.80
2019-05-26T12:43:07.804Z,51.50
2019-05-26T13:15:05.610Z,51.20
2019-05-26T13:21:11.563Z,51.70
2019-05-26T13:23:39.504Z,50.10
2019-05-26T13:26:10.620Z,50.10
2019-05-26T13:28:38.644Z,49.70
2019-05-26T13:31:09.136Z,50.30
2019-05-26T13:33:44.184Z,50.10
2019-05-26T13:36:13.702Z,49.60
2019-05-26T13:38:41.493Z,50.60
2019-05-26T13:41:09.560Z,49.00
2019-05-26T13:43:57.995Z,49.80
2019-05-26T13:46:34.185Z,49.00
2019-05-26T13:49:08.536Z,49.20
2019-05-26T13:51:39.897Z,48.80
2019-05-26T13:54:07.899Z,49.60
2019-05-26T13:56:36.332Z,49.60
2019-05-26T13:59:05.670Z,49.70
2019-05-26T14:01:34.751Z,49.40
2019-05-26T14:04:05.444Z,49.20
2019-05-26T14:06:40.078Z,48.90
2019-05-26T14:09:11.849Z,49.20
2019-05-26T14:11:42.141Z,48.20
2019-05-26T14:14:10.261Z,47.40
2019-05-26T14:16:38.588Z,48.40
2019-05-26T14:19:08.247Z,49.00
2019-05-26T14:21:37.430Z,49.10
2019-05-26T14:24:11.048Z,49.60
2019-05-26T14:26:39.990Z,50.80
2019-05-26T14:29:14.515Z,50.00
2019-05-26T14:31:45.091Z,49.80
2019-05-26T14:34:14.857Z,48.80
2019-05-26T14:36:42.770Z,49.50
2019-05-26T14:39:10.451Z,48.80
2019-05-26T14:41:38.458Z,50.00
2019-05-26T14:44:09.326Z,49.60
2019-05-26T14:46:36.840Z,49.80
2019-05-26T14:49:10.330Z,50.00
2019-05-26T14:51:38.538Z,50.40
2019-05-26T14:54:06.859Z,50.00
2019-05-26T14:56:38.747Z,48.70
2019-05-26T14:59:06.530Z,48.90
2019-05-26T15:01:37.620Z,48.90
2019-05-26T15:04:05.800Z,49.20
2019-05-26T15:06:37.653Z,49.00
2019-05-26T15:09:07.026Z,49.40
2019-05-26T15:11:35.967Z,49.40
2019-05-26T15:14:08.490Z,49.60
2019-05-26T15:16:36.121Z,49.20
2019-05-26T15:19:09.785Z,48.50
2019-05-26T15:21:38.799Z,48.40
2019-05-26T15:24:07.088Z,49.40
2019-05-26T15:26:45.054Z,48.90
2019-05-26T15:29:13.884Z,49.40
2019-05-26T15:31:44.606Z,49.50
2019-05-26T15:34:12.226Z,49.60
2019-05-26T15:36:42.056Z,49.80
2019-05-26T15:39:47.486Z,49.50
2019-05-26T15:42:47.810Z,49.80
2019-05-26T15:45:17.699Z,50.10
2019-05-26T15:47:45.201Z,50.10
2019-05-26T15:50:14.899Z,50.70
2019-05-26T15:52:42.685Z,50.00
2019-05-26T15:55:18.773Z,50.50
2019-05-26T15:57:52.459Z,50.70
2019-05-26T16:00:23.870Z,50.90
2019-05-26T16:02:56.639Z,51.10
2019-05-26T16:05:26.565Z,51.60
2019-05-26T16:07:56.618Z,51.70
2019-05-26T16:10:26.253Z,52.30
2019-05-26T16:12:56.664Z,52.60
2019-05-26T16:15:24.325Z,52.60
2019-05-26T16:17:52.488Z,52.50
2019-05-26T16:20:20.098Z,52.80
2019-05-26T16:22:51.151Z,52.60
2019-05-26T16:25:19.015Z,53.20
2019-05-26T16:27:52.810Z,53.10
2019-05-26T16:30:20.577Z,53.30
2019-05-26T16:32:48.030Z,53.50
2019-05-26T16:35:16.045Z,53.70
2019-05-26T16:37:46.007Z,54.40
2019-05-26T16:40:14.714Z,54.30
2019-05-26T16:42:42.427Z,54.00
2019-05-26T16:45:11.298Z,54.10
2019-05-26T16:47:38.830Z,54.40
2019-05-26T16:50:07.584Z,54.70
2019-05-26T16:52:35.719Z,54.70
2019-05-26T16:55:11.255Z,55.60
2019-05-26T16:57:39.952Z,55.60
2019-05-26T17:00:15.732Z,55.70
2019-05-26T17:02:43.755Z,56.20
2019-05-26T17:05:12.212Z,56.30
2019-05-26T17:07:49.612Z,56.30
2019-05-26T17:10:17.077Z,56.30
2019-05-26T17:12:45.511Z,57.20
2019-05-26T17:15:17.104Z,56.70
2019-05-26T17:17:49.917Z,56.50
2019-05-26T17:20:17.487Z,56.40
2019-05-26T17:23:04.232Z,56.50
2019-05-26T17:25:39.677Z,56.80
2019-05-26T17:28:11.620Z,56.90
2019-05-26T17:30:40.104Z,57.00
2019-05-26T17:33:08.647Z,57.20
2019-05-26T17:35:36.299Z,57.30
2019-05-26T17:38:04.927Z,57.40
2019-05-26T17:40:32.835Z,57.60
2019-05-26T17:43:02.452Z,57.60
2019-05-26T17:45:32.372Z,57.50
2019-05-26T17:48:00.162Z,57.70
2019-05-26T17:50:27.887Z,57.50
2019-05-26T17:52:55.660Z,57.20
2019-05-26T17:55:23.311Z,57.40
2019-05-26T17:57:57.049Z,57.30
2019-05-26T18:00:27.904Z,57.40
2019-05-26T18:03:02.192Z,57.20
2019-05-26T18:05:31.940Z,57.60
2019-05-26T18:08:08.174Z,58.40
2019-05-26T18:10:40.490Z,57.70
2019-05-26T18:13:08.270Z,57.90
2019-05-26T18:15:41.026Z,58.20
2019-05-26T18:18:11.143Z,58.10
2019-05-26T18:20:39.057Z,57.80
2019-05-26T18:23:06.659Z,57.80
2019-05-26T18:25:38.443Z,58.00
2019-05-26T18:28:06.831Z,58.20
2019-05-26T18:30:34.710Z,58.50
2019-05-26T18:33:02.184Z,58.30
2019-05-26T18:35:29.757Z,58.10
2019-05-26T18:37:57.809Z,58.50
2019-05-26T18:40:32.834Z,58.30
2019-05-26T18:43:00.211Z,58.30
2019-05-26T18:45:28.303Z,58.60
2019-05-26T18:48:03.677Z,58.80
2019-05-26T18:50:31.480Z,59.10
2019-05-26T18:53:00.400Z,59.10
2019-05-26T18:55:28.766Z,59.10
2019-05-26T18:57:56.310Z,59.50
2019-05-26T19:00:31.037Z,59.60
2019-05-26T19:02:58.850Z,60.20
2019-05-26T19:05:38.049Z,60.70
2019-05-26T19:08:02.858Z,62.00
2019-05-26T19:10:30.477Z,62.80
2019-05-26T19:12:58.266Z,65.20
2019-05-26T19:15:27.890Z,67.70
2019-05-26T19:17:55.782Z,69.30
2019-05-26T19:20:23.494Z,69.70
2019-05-26T19:22:53.417Z,70.10
2019-05-26T19:25:21.360Z,71.40
2019-05-26T19:27:48.950Z,69.80
2019-05-26T19:30:18.554Z,71.00
2019-05-26T19:32:55.233Z,71.50
2019-05-26T19:35:23.685Z,71.10
2019-05-26T19:37:51.895Z,72.80
2019-05-26T19:40:25.670Z,71.90
2019-05-26T19:42:56.910Z,71.80
2019-05-26T19:45:25.167Z,71.30
2019-05-26T19:47:52.658Z,71.90
2019-05-26T19:50:20.191Z,72.10
2019-05-26T19:52:49.865Z,72.50
2019-05-26T19:55:17.815Z,72.20
2019-05-26T19:57:48.087Z,72.60
2019-05-26T20:00:18.892Z,73.60
2019-05-26T20:02:49.492Z,75.10
2019-05-26T20:05:17.415Z,76.10
2019-05-26T20:07:45.701Z,76.30
2019-05-26T20:10:13.327Z,76.20
2019-05-26T20:12:40.935Z,77.40
2019-05-26T20:15:08.460Z,77.90
2019-05-26T20:17:36.197Z,78.40
2019-05-26T20:20:04.224Z,77.80
2019-05-26T20:22:32.706Z,79.20
2019-05-26T20:25:03.717Z,79.50
2019-05-26T20:27:31.107Z,81.10
2019-05-26T20:29:58.464Z,81.40
2019-05-26T20:32:31.939Z,81.60
2019-05-26T20:34:59.735Z,84.30
2019-05-26T20:37:27.258Z,84.90
2019-05-26T20:39:55.986Z,84.60
2019-05-26T20:42:25.907Z,86.20
2019-05-26T20:44:55.549Z,87.10
2019-05-26T20:47:23.235Z,87.30
2019-05-26T20:49:50.972Z,87.60
2019-05-26T20:52:18.381Z,87.30
2019-05-26T20:54:46.889Z,87.90
2019-05-26T20:57:14.727Z,88.80
2019-05-26T20:59:43.687Z,88.50
2019-05-26T21:02:12.404Z,88.60
2019-05-26T21:04:39.835Z,88.70
2019-05-26T21:07:09.756Z,90.30
2019-05-26T21:09:39.672Z,90.40
2019-05-26T21:12:07.211Z,91.10
2019-05-26T21:14:34.824Z,91.40
2019-05-26T21:17:02.053Z,90.90
2019-05-26T21:19:29.754Z,90.30
2019-05-26T21:21:57.122Z,91.00
2019-05-26T21:24:24.503Z,90.90
2019-05-26T21:27:00.340Z,91.20
2019-05-26T21:29:28.617Z,91.40
2019-05-26T21:31:57.207Z,91.40
2019-05-26T21:34:32.367Z,91.40
2019-05-26T21:37:01.066Z,91.90
2019-05-26T21:39:32.155Z,91.50
2019-05-26T21:42:05.864Z,91.10
2019-05-26T21:44:39.422Z,91.30
2019-05-26T21:47:07.045Z,91.20
2019-05-26T21:49:36.660Z,91.50
2019-05-26T21:52:11.373Z,91.60
2019-05-26T21:54:55.568Z,91.80
2019-05-26T21:57:20.116Z,91.60
2019-05-26T21:59:47.653Z,91.70
2019-05-26T22:02:15.804Z,91.70
2019-05-26T22:04:45.276Z,92.00
2019-05-26T22:07:17.933Z,92.60
2019-05-26T22:09:48.484Z,92.30
2019-05-26T22:12:18.640Z,92.10
2019-05-26T22:14:47.379Z,92.40
2019-05-26T22:17:15.108Z,91.40
2019-05-26T22:19:44.505Z,91.90
2019-05-26T22:22:12.034Z,92.00
2019-05-26T22:24:48.863Z,92.40
2019-05-26T22:27:16.156Z,92.20
2019-05-26T22:29:47.902Z,92.60
2019-05-26T22:32:15.458Z,92.30
2019-05-26T22:34:42.972Z,91.70
2019-05-26T22:37:12.641Z,92.10
2019-05-26T22:39:41.357Z,92.00
2019-05-26T22:42:08.760Z,92.20
2019-05-26T22:44:36.470Z,92.00
2019-05-26T22:47:05.290Z,92.20
2019-05-26T22:49:35.732Z,91.80
2019-05-26T22:52:04.133Z,92.20
2019-05-26T22:54:31.634Z,91.90
2019-05-26T22:57:00.044Z,91.80
2019-05-26T22:59:27.753Z,92.00
2019-05-26T23:01:55.558Z,90.90
2019-05-26T23:04:23.468Z,90.50
2019-05-26T23:09:24.867Z,90.50
2019-05-26T23:11:52.206Z,90.60
2019-05-26T23:14:20.231Z,90.70
2019-05-26T23:16:49.554Z,90.70
2019-05-26T23:19:22.960Z,90.50
2019-05-26T23:21:50.490Z,90.80
2019-05-26T23:24:18.170Z,90.90
2019-05-26T23:26:45.594Z,91.30
2019-05-26T23:29:13.502Z,90.00
2019-05-26T23:31:41.221Z,90.40
2019-05-26T23:34:08.766Z,90.80
2019-05-26T23:36:36.155Z,91.10
2019-05-26T23:39:05.150Z,91.20
2019-05-26T23:41:32.422Z,90.60
2019-05-26T23:44:00.089Z,90.50
2019-05-26T23:46:27.758Z,90.70
2019-05-26T23:48:55.239Z,90.70
2019-05-26T23:51:22.767Z,91.50
2019-05-26T23:53:50.853Z,91.30
2019-05-26T23:56:19.261Z,91.30
2019-05-26T23:58:46.512Z,91.40
